Terminal Aerodrome Forecast
Issued by NWS Jackson, MS

Home | Current Version | Previous Version | Text Only | Print | Product List | Glossary On
Versions: 1 2 3 4 5 6 7 8 9 10 11 12 13 14
616
FTUS44 KJAN 282135 AAA
TAFHBG
TAF AMD
KHBG 282135Z 2822/2918 00000KT P6SM SCT045
     FM290000 20004KT P6SM BKN250
     FM291000 VRB03KT 3SM BR SCT006
     FM291400 VRB03KT P6SM SCT250=

USA.gov is the U.S. government's official web portal to all federal, state and local government web resources and services.